< Typhoon 195308 1953 Season Typhoon 195310 >
Typhoon 195309 (PHYLLIS)
General InformationTrack Information on Google Maps || Disaster Info.ResourceGoogle EarthGE AnimationAtom FeedGeoJSON
Detalied Best Track (Time Zone = UTC)
Year Month Day Hour Lat. Long. Pressure (hPa) Wind (kt) Class Image Chart
1953 8 16 06 12.0 144.0 1008 0 2 -- Chart
1953 8 16 12 12.5 142.4 1006 0 2 -- Chart
1953 8 16 18 12.9 140.6 1006 0 2 -- Chart
1953 8 17 00 13.5 138.5 1006 0 2 -- Chart
1953 8 17 06 14.3 136.3 1004 0 2 -- Chart
1953 8 17 12 14.8 134.9 1004 0 2 -- Chart
1953 8 17 18 15.5 133.5 1004 0 2 -- Chart
1953 8 18 00 15.9 132.2 1004 0 2 -- Chart
1953 8 18 06 16.4 130.9 1002 0 2 -- Chart
1953 8 18 12 16.9 129.2 998 0 2 -- Chart
1953 8 18 18 17.3 128.0 994 0 9 -- Chart
1953 8 19 00 17.5 127.0 980 0 9 -- Chart
1953 8 19 06 17.6 126.0 975 0 9 -- Chart
1953 8 19 12 18.1 124.9 980 0 9 -- Chart
1953 8 19 18 18.9 124.2 980 0 9 -- Chart
1953 8 20 00 19.6 123.5 980 0 9 -- Chart
1953 8 20 06 21.0 123.6 980 0 9 -- Chart
1953 8 20 12 22.1 122.4 980 0 9 -- Chart
1953 8 20 18 23.6 120.9 980 0 9 -- Chart
1953 8 21 00 25.0 120.0 980 0 9 -- Chart
1953 8 21 06 26.3 119.0 985 0 9 -- Chart
1953 8 21 12 27.7 117.7 990 0 9 -- Chart
1953 8 21 18 29.5 116.4 1000 0 9 -- Chart
1953 8 22 00 31.9 115.0 1002 0 9 -- Chart
1953 8 22 06 34.0 114.0 1004 0 6 -- Chart
1953 8 22 12 36.2 114.0 1004 0 6 -- Chart
1953 8 22 18 37.8 114.9 1008 0 6 -- Chart
1953 8 23 00 39.0 116.1 1008 0 6 -- Chart
1953 8 23 06 38.7 119.5 1008 0 6 -- Chart
1953 8 23 12 38.0 122.2 1008 0 6 -- Chart
1953 8 23 18 38.0 126.2 1009 0 6 -- Chart
1953 8 24 00 38.0 128.0 1010 0 6 -- Chart
1953 8 24 06 37.6 128.0 1008 0 6 -- Chart
1953 8 24 12 36.7 128.0 1008 0 6 -- Chart
1953 8 24 18 36.0 130.2 1007 0 6 -- Chart
1953 8 25 00 35.5 133.4 1006 0 6 -- Chart
1953 8 25 06 35.5 134.6 1004 0 6 -- Chart
1953 8 25 12 35.4 135.7 1004 0 6 -- Chart
Japan Meteorological Agency Best Track Data | Correction Date : 1989-06-01
< Typhoon 195308 1953 Season Typhoon 195310 >

Help